createdAt,value
2023-10-11T00:01:05.821Z,55.60
2023-10-11T00:03:36.540Z,55.60
2023-10-11T00:06:07.426Z,55.60
2023-10-11T00:08:41.730Z,55.60
2023-10-11T00:11:12.658Z,55.60
2023-10-11T00:13:41.895Z,55.60
2023-10-11T00:16:11.563Z,55.60
2023-10-11T00:18:41.431Z,55.60
2023-10-11T00:21:13.348Z,55.60
2023-10-11T00:23:44.731Z,55.60
2023-10-11T00:26:15.827Z,55.60
2023-10-11T00:28:45.021Z,55.60
2023-10-11T00:31:18.790Z,55.60
2023-10-11T00:33:51.713Z,55.60
2023-10-11T00:36:27.427Z,55.60
2023-10-11T00:38:55.648Z,56.20
2023-10-11T00:41:26.989Z,55.60
2023-10-11T00:43:55.716Z,55.60
2023-10-11T00:46:29.016Z,55.60
2023-10-11T00:49:05.161Z,55.60
2023-10-11T00:51:34.081Z,55.60
2023-10-11T00:54:05.419Z,55.60
2023-10-11T00:56:34.937Z,55.60
2023-10-11T00:59:09.349Z,55.60
2023-10-11T01:01:37.848Z,55.60
2023-10-11T01:04:07.938Z,55.60
2023-10-11T01:06:36.401Z,55.50
2023-10-11T01:09:10.333Z,55.60
2023-10-11T01:11:40.146Z,55.60
2023-10-11T01:14:09.806Z,55.60
2023-10-11T01:16:37.750Z,55.60
2023-10-11T01:19:09.862Z,55.60
2023-10-11T01:21:39.103Z,55.60
2023-10-11T01:24:09.780Z,55.50
2023-10-11T01:26:38.037Z,55.60
2023-10-11T01:29:07.337Z,55.60
2023-10-11T01:31:35.974Z,55.50
2023-10-11T01:34:05.099Z,55.60
2023-10-11T01:36:33.251Z,55.60
2023-10-11T01:39:07.649Z,55.60
2023-10-11T01:41:36.212Z,55.60
2023-10-11T01:44:04.209Z,55.60
2023-10-11T01:46:36.469Z,55.60
2023-10-11T01:49:06.782Z,55.60
2023-10-11T01:51:39.914Z,55.60
2023-10-11T01:54:10.672Z,55.60
2023-10-11T01:56:39.941Z,55.60
2023-10-11T01:59:14.824Z,55.60
2023-10-11T02:01:43.774Z,55.50
2023-10-11T02:04:19.494Z,55.60
2023-10-11T02:06:49.781Z,55.60
2023-10-11T02:09:22.063Z,55.50
2023-10-11T02:11:53.513Z,55.60
2023-10-11T02:14:22.331Z,55.60
2023-10-11T02:16:50.340Z,55.60
2023-10-11T02:19:19.729Z,55.60
2023-10-11T02:21:47.652Z,55.60
2023-10-11T02:24:16.806Z,55.60
2023-10-11T02:26:50.839Z,55.60
2023-10-11T02:29:21.915Z,55.60
2023-10-11T02:31:51.927Z,55.60
2023-10-11T02:34:20.112Z,55.60
2023-10-11T02:36:57.664Z,55.60
2023-10-11T02:39:33.342Z,55.60
2023-10-11T02:42:06.695Z,55.60
2023-10-11T02:44:40.901Z,55.50
2023-10-11T02:47:10.657Z,55.50
2023-10-11T02:49:38.915Z,55.60
2023-10-11T02:52:10.045Z,55.60
2023-10-11T02:54:41.234Z,55.60
2023-10-11T02:57:19.940Z,55.50
2023-10-11T02:59:51.819Z,55.50
2023-10-11T03:02:22.322Z,55.60
2023-10-11T03:04:50.649Z,55.60
2023-10-11T03:07:22.826Z,55.50
2023-10-11T03:09:52.149Z,55.50
2023-10-11T03:12:32.489Z,55.60
2023-10-11T03:15:07.882Z,55.50
2023-10-11T03:17:42.183Z,55.50
2023-10-11T03:20:25.426Z,55.50
2023-10-11T03:22:54.467Z,55.50
2023-10-11T03:25:23.648Z,55.50
2023-10-11T03:27:53.287Z,55.50
2023-10-11T03:30:25.753Z,55.60
2023-10-11T03:32:54.364Z,55.50
2023-10-11T03:35:26.121Z,55.50
2023-10-11T03:38:00.072Z,55.50
2023-10-11T03:40:35.665Z,55.40
2023-10-11T03:43:13.540Z,55.50
2023-10-11T03:45:50.632Z,55.60
2023-10-11T03:48:19.479Z,55.50
2023-10-11T03:50:50.062Z,55.50
2023-10-11T03:53:18.133Z,55.50
2023-10-11T03:55:50.295Z,55.50
2023-10-11T03:58:38.763Z,55.50
2023-10-11T04:01:13.299Z,55.50
2023-10-11T04:03:42.326Z,55.50
2023-10-11T04:06:17.169Z,55.50
2023-10-11T04:08:50.223Z,55.50
2023-10-11T04:11:20.301Z,55.50
2023-10-11T04:13:54.327Z,55.50
2023-10-11T04:16:24.678Z,55.50
2023-10-11T04:18:53.944Z,55.50
2023-10-11T04:21:44.538Z,55.50
2023-10-11T04:24:13.537Z,55.50
2023-10-11T04:26:42.453Z,55.50
2023-10-11T04:29:19.024Z,55.50
2023-10-11T04:32:05.496Z,55.50
2023-10-11T04:34:33.891Z,55.40
2023-10-11T04:37:07.834Z,55.50
2023-10-11T04:39:36.572Z,55.50
2023-10-11T04:42:07.760Z,55.50
2023-10-11T04:44:43.696Z,55.50
2023-10-11T04:47:12.704Z,55.50
2023-10-11T04:49:44.867Z,55.50
2023-10-11T04:52:15.582Z,55.50
2023-10-11T04:54:55.302Z,55.50
2023-10-11T04:57:37.172Z,55.50
2023-10-11T05:00:10.185Z,55.50
2023-10-11T05:02:39.893Z,55.50
2023-10-11T05:05:12.281Z,55.50
2023-10-11T05:07:44.090Z,55.50
2023-10-11T05:10:30.799Z,55.50
2023-10-11T05:13:06.828Z,55.50
2023-10-11T05:15:44.223Z,55.50
2023-10-11T05:18:19.826Z,55.50
2023-10-11T05:20:58.824Z,55.50
2023-10-11T05:23:42.919Z,55.50
2023-10-11T05:26:38.429Z,55.50
2023-10-11T05:29:10.562Z,55.50
2023-10-11T05:32:01.305Z,55.50
2023-10-11T05:34:47.452Z,55.50
2023-10-11T05:37:33.222Z,55.50
2023-10-11T05:40:18.623Z,55.50
2023-10-11T05:43:04.192Z,55.50
2023-10-11T05:45:48.873Z,55.50
2023-10-11T05:48:35.816Z,55.50
2023-10-11T05:51:04.819Z,55.50
2023-10-11T05:53:33.442Z,55.50
2023-10-11T05:56:01.495Z,55.50
2023-10-11T05:58:29.464Z,55.50
2023-10-11T06:00:57.844Z,55.50
2023-10-11T06:03:30.167Z,55.50
2023-10-11T06:06:00.832Z,55.50
2023-10-11T06:08:32.579Z,55.50
2023-10-11T06:11:02.125Z,55.50
2023-10-11T06:13:30.218Z,55.50
2023-10-11T06:16:01.386Z,55.50
2023-10-11T06:18:56.980Z,55.40
2023-10-11T06:21:31.945Z,55.40
2023-10-11T06:24:01.230Z,55.40
2023-10-11T06:26:51.310Z,56.10
2023-10-11T06:29:24.339Z,55.40
2023-10-11T06:32:05.230Z,55.40
2023-10-11T06:34:46.286Z,55.40
2023-10-11T06:37:18.262Z,55.40
2023-10-11T06:40:03.951Z,55.40
2023-10-11T06:42:33.338Z,55.40
2023-10-11T06:45:02.853Z,55.40
2023-10-11T06:47:35.189Z,55.40
2023-10-11T06:50:12.695Z,55.40
2023-10-11T06:52:44.789Z,55.50
2023-10-11T06:55:18.383Z,55.50
2023-10-11T06:57:52.133Z,55.50
2023-10-11T07:00:26.197Z,55.50
2023-10-11T07:03:06.604Z,55.40
2023-10-11T07:05:42.928Z,55.50
2023-10-11T07:08:11.698Z,55.50
2023-10-11T07:10:46.594Z,55.50
2023-10-11T07:13:15.538Z,55.50
2023-10-11T07:15:45.607Z,55.50
2023-10-11T07:18:22.943Z,55.50
2023-10-11T07:21:06.754Z,55.50
2023-10-11T07:23:47.635Z,55.50
2023-10-11T07:26:25.176Z,55.50
2023-10-11T07:28:53.586Z,55.50
2023-10-11T07:31:22.424Z,55.50
2023-10-11T07:33:51.751Z,55.50
2023-10-11T07:36:24.540Z,55.50
2023-10-11T07:38:57.207Z,55.50
2023-10-11T07:41:29.741Z,55.50
2023-10-11T07:43:57.905Z,55.50
2023-10-11T07:46:26.384Z,55.50
2023-10-11T07:49:02.533Z,55.50
2023-10-11T07:51:32.068Z,55.50
2023-10-11T07:54:04.128Z,55.50
2023-10-11T07:56:39.294Z,55.40
2023-10-11T07:59:09.834Z,55.40
2023-10-11T08:01:44.460Z,55.50
2023-10-11T08:04:14.104Z,55.50
2023-10-11T08:06:43.359Z,55.40
2023-10-11T08:09:20.263Z,55.40
2023-10-11T08:11:53.355Z,55.40
2023-10-11T08:14:23.949Z,55.60
2023-10-11T08:16:52.268Z,55.50
2023-10-11T08:19:20.613Z,55.50
2023-10-11T08:21:55.938Z,55.50
2023-10-11T08:24:27.022Z,55.50
2023-10-11T08:26:55.454Z,55.50
2023-10-11T08:29:33.481Z,55.50
2023-10-11T08:32:07.271Z,55.50
2023-10-11T08:34:36.410Z,55.50
2023-10-11T08:37:08.494Z,55.50
2023-10-11T08:39:42.804Z,55.60
2023-10-11T08:42:12.931Z,55.50
2023-10-11T08:44:45.593Z,55.50
2023-10-11T08:47:17.214Z,55.50
2023-10-11T08:49:49.711Z,55.50
2023-10-11T08:52:25.857Z,55.50
2023-10-11T08:54:54.049Z,55.50
2023-10-11T08:57:26.608Z,55.50
2023-10-11T08:59:58.164Z,55.50
2023-10-11T09:02:27.998Z,55.50
2023-10-11T09:04:58.135Z,55.50
2023-10-11T09:07:41.426Z,55.50
2023-10-11T09:10:27.045Z,55.50
2023-10-11T09:12:58.265Z,56.10
2023-10-11T09:15:38.282Z,55.50
2023-10-11T09:18:18.226Z,55.50
2023-10-11T09:20:57.075Z,55.50
2023-10-11T09:23:37.952Z,55.50
2023-10-11T09:26:06.885Z,55.50
2023-10-11T09:28:35.755Z,55.50
2023-10-11T09:31:16.855Z,55.50
2023-10-11T09:33:51.621Z,55.60
2023-10-11T09:36:21.736Z,55.60
2023-10-11T09:38:55.931Z,56.20
2023-10-11T09:41:25.910Z,55.60
2023-10-11T09:43:58.551Z,55.50
2023-10-11T09:46:30.563Z,55.60
2023-10-11T09:48:58.986Z,55.60
2023-10-11T09:51:27.443Z,55.60
2023-10-11T09:54:03.075Z,55.60
2023-10-11T09:56:46.294Z,55.60
2023-10-11T09:59:24.822Z,55.60
2023-10-11T10:02:04.167Z,55.60
2023-10-11T10:04:56.366Z,55.60
2023-10-11T10:07:27.530Z,55.60
2023-10-11T10:10:01.426Z,55.60
2023-10-11T10:12:34.842Z,55.60
2023-10-11T10:15:13.439Z,55.60
2023-10-11T10:18:02.866Z,55.60
2023-10-11T10:20:44.505Z,55.60
2023-10-11T10:23:31.650Z,55.60
2023-10-11T10:26:33.263Z,55.60
2023-10-11T10:29:02.581Z,55.60
2023-10-11T10:31:34.793Z,55.60
2023-10-11T10:34:26.096Z,55.60
2023-10-11T10:36:55.866Z,55.60
2023-10-11T10:39:47.803Z,55.60
2023-10-11T10:42:17.470Z,55.60
2023-10-11T10:44:59.654Z,55.60
2023-10-11T10:47:30.186Z,55.60
2023-10-11T10:50:04.466Z,55.60
2023-10-11T10:52:31.789Z,55.60
2023-10-11T10:55:04.787Z,55.60
2023-10-11T10:57:33.202Z,55.60
2023-10-11T11:00:07.150Z,55.60
2023-10-11T11:02:35.476Z,55.60
2023-10-11T11:05:04.794Z,55.60
2023-10-11T11:07:34.295Z,55.60
2023-10-11T11:10:02.761Z,55.70
2023-10-11T11:12:30.012Z,55.60
2023-10-11T11:15:00.483Z,55.60
2023-10-11T11:17:51.609Z,55.60
2023-10-11T11:20:30.396Z,55.70
2023-10-11T11:22:57.453Z,55.70
2023-10-11T11:25:29.505Z,55.70
2023-10-11T11:28:07.853Z,55.70
2023-10-11T11:30:36.094Z,55.70
2023-10-11T11:33:15.125Z,55.70
2023-10-11T11:35:52.155Z,55.70
2023-10-11T11:38:22.571Z,55.70
2023-10-11T11:40:53.337Z,55.70
2023-10-11T11:43:21.535Z,55.70
2023-10-11T11:45:58.668Z,55.70
2023-10-11T11:48:28.332Z,55.70
2023-10-11T11:50:57.785Z,55.70
2023-10-11T11:53:26.720Z,55.70
2023-10-11T11:55:53.870Z,55.70
2023-10-11T11:58:21.860Z,55.70
2023-10-11T12:01:09.567Z,55.70
2023-10-11T12:03:41.962Z,55.70
2023-10-11T12:06:23.152Z,55.70
2023-10-11T12:08:58.982Z,55.70
2023-10-11T12:11:29.814Z,55.70
2023-10-11T12:13:59.310Z,55.70
2023-10-11T12:16:27.979Z,55.80
2023-10-11T12:19:00.755Z,55.70
2023-10-11T12:21:30.108Z,55.70
2023-10-11T12:23:58.791Z,55.80
2023-10-11T12:26:28.341Z,55.70
2023-10-11T12:29:00.055Z,55.70
2023-10-11T12:31:28.406Z,55.80
2023-10-11T12:33:57.847Z,55.70
2023-10-11T12:36:29.566Z,55.70
2023-10-11T12:38:58.821Z,55.80
2023-10-11T12:41:27.047Z,55.80
2023-10-11T12:43:54.997Z,55.70
2023-10-11T12:46:23.002Z,55.80
2023-10-11T12:48:56.309Z,55.80
2023-10-11T12:51:27.123Z,55.80
2023-10-11T12:53:57.094Z,55.80
2023-10-11T12:56:25.807Z,55.80
2023-10-11T12:58:55.439Z,55.80
2023-10-11T13:01:38.227Z,55.80
2023-10-11T13:04:12.310Z,55.80
2023-10-11T13:06:48.232Z,55.80
2023-10-11T13:09:16.517Z,55.80
2023-10-11T13:11:46.557Z,55.80
2023-10-11T13:14:20.419Z,55.80
2023-10-11T13:16:50.428Z,55.80
2023-10-11T13:19:20.158Z,55.80
2023-10-11T13:21:50.488Z,55.80
2023-10-11T13:24:23.213Z,55.80
2023-10-11T13:26:52.841Z,55.80
2023-10-11T13:29:21.431Z,55.80
2023-10-11T13:31:50.359Z,55.90
2023-10-11T13:34:18.460Z,55.80
2023-10-11T13:36:46.816Z,55.80
2023-10-11T13:39:27.614Z,55.80
2023-10-11T13:41:56.416Z,55.80
2023-10-11T13:44:25.227Z,55.90
2023-10-11T13:46:54.950Z,55.80
2023-10-11T13:49:26.499Z,55.80
2023-10-11T13:51:55.556Z,55.80
2023-10-11T13:54:37.257Z,55.80
2023-10-11T13:57:08.722Z,55.80
2023-10-11T13:59:44.155Z,55.80
2023-10-11T14:02:26.275Z,55.80
2023-10-11T14:04:58.029Z,55.80
2023-10-11T14:07:33.846Z,55.80
2023-10-11T14:10:15.187Z,55.80
2023-10-11T14:12:43.527Z,55.80
2023-10-11T14:15:13.491Z,55.80
2023-10-11T14:17:41.584Z,55.70
2023-10-11T14:20:14.109Z,55.80
2023-10-11T14:22:44.256Z,55.80
2023-10-11T14:25:14.263Z,55.80
2023-10-11T14:27:42.315Z,55.80
2023-10-11T14:30:13.984Z,55.80
2023-10-11T14:32:42.130Z,55.90
2023-10-11T14:35:10.950Z,55.90
2023-10-11T14:37:41.478Z,55.90
2023-10-11T14:40:15.588Z,55.90
2023-10-11T14:42:45.892Z,55.90
2023-10-11T14:45:15.733Z,55.90
2023-10-11T14:47:46.566Z,55.90
2023-10-11T14:50:15.007Z,55.90
2023-10-11T14:52:43.862Z,55.90
2023-10-11T14:55:17.348Z,55.90
2023-10-11T14:57:49.888Z,55.90
2023-10-11T15:00:18.654Z,55.90
2023-10-11T15:02:46.724Z,55.90
2023-10-11T15:05:16.833Z,55.80
2023-10-11T15:07:45.173Z,55.90
2023-10-11T15:10:13.593Z,55.90
2023-10-11T15:12:42.728Z,55.90
2023-10-11T15:15:13.988Z,55.90
2023-10-11T15:17:42.315Z,55.90
2023-10-11T15:20:10.637Z,55.90
2023-10-11T15:22:38.778Z,55.90
2023-10-11T15:25:09.701Z,55.90
2023-10-11T15:27:37.897Z,55.90
2023-10-11T15:30:07.921Z,55.90
2023-10-11T15:32:40.939Z,56.50
2023-10-11T15:35:15.368Z,55.90
2023-10-11T15:37:47.672Z,55.90
2023-10-11T15:40:18.171Z,55.90
2023-10-11T15:42:48.002Z,55.90
2023-10-11T15:45:17.947Z,55.90
2023-10-11T15:47:49.883Z,55.90
2023-10-11T15:50:20.151Z,55.90
2023-10-11T15:52:50.864Z,55.90
2023-10-11T15:55:23.317Z,55.90
2023-10-11T15:57:51.489Z,55.90
2023-10-11T16:00:21.124Z,55.90
2023-10-11T16:02:56.090Z,56.00
2023-10-11T16:05:24.187Z,55.90
2023-10-11T16:07:53.387Z,56.00
2023-10-11T16:10:21.648Z,55.90
2023-10-11T16:12:49.588Z,56.00
2023-10-11T16:15:19.615Z,56.00
2023-10-11T16:17:47.749Z,56.00
2023-10-11T16:20:17.089Z,56.00
2023-10-11T16:22:44.978Z,56.00
2023-10-11T16:25:13.812Z,56.00
2023-10-11T16:27:43.579Z,56.00
2023-10-11T16:30:14.249Z,56.00
2023-10-11T16:32:42.913Z,56.00
2023-10-11T16:35:14.764Z,56.00
2023-10-11T16:37:44.700Z,56.60
2023-10-11T16:40:17.761Z,56.00
2023-10-11T16:42:47.718Z,56.00
2023-10-11T16:45:17.246Z,56.00
2023-10-11T16:47:46.601Z,55.90
2023-10-11T16:50:17.639Z,55.90
2023-10-11T16:52:47.383Z,56.00
2023-10-11T16:55:15.409Z,55.90
2023-10-11T16:57:43.388Z,55.90
2023-10-11T17:00:14.800Z,55.90
2023-10-11T17:02:43.676Z,55.90
2023-10-11T17:05:14.262Z,55.90
2023-10-11T17:07:42.599Z,55.90
2023-10-11T17:10:12.183Z,55.90
2023-10-11T17:12:41.908Z,55.90
2023-10-11T17:15:15.171Z,55.90
2023-10-11T17:17:43.734Z,55.90
2023-10-11T17:20:16.584Z,55.90
2023-10-11T17:22:47.049Z,55.90
2023-10-11T17:25:17.223Z,55.90
2023-10-11T17:27:45.886Z,56.00
2023-10-11T17:30:15.196Z,55.90
2023-10-11T17:32:43.505Z,55.90
2023-10-11T17:35:12.198Z,56.00
2023-10-11T17:37:40.611Z,56.00
2023-10-11T17:40:11.526Z,55.90
2023-10-11T17:42:41.161Z,55.90
2023-10-11T17:45:10.863Z,55.90
2023-10-11T17:47:39.797Z,56.00
2023-10-11T17:50:09.002Z,55.90
2023-10-11T17:52:37.048Z,55.90
2023-10-11T17:55:08.810Z,55.90
2023-10-11T17:57:37.582Z,55.90
2023-10-11T18:00:10.457Z,55.90
2023-10-11T18:02:38.961Z,55.90
2023-10-11T18:05:08.597Z,55.90
2023-10-11T18:07:36.816Z,55.90
2023-10-11T18:10:06.497Z,55.90
2023-10-11T18:12:38.272Z,55.90
2023-10-11T18:15:08.839Z,55.90
2023-10-11T18:17:40.884Z,55.90
2023-10-11T18:20:10.562Z,55.90
2023-10-11T18:22:40.814Z,55.90
2023-10-11T18:25:10.944Z,55.90
2023-10-11T18:27:39.233Z,55.90
2023-10-11T18:30:12.502Z,55.90
2023-10-11T18:32:41.515Z,55.90
2023-10-11T18:35:10.184Z,55.90
2023-10-11T18:37:38.491Z,56.00
2023-10-11T18:40:08.854Z,55.90
2023-10-11T18:42:38.488Z,55.90
2023-10-11T18:45:12.798Z,55.80
2023-10-11T18:47:43.149Z,56.00
2023-10-11T18:50:11.699Z,55.90
2023-10-11T18:52:39.850Z,55.90
2023-10-11T18:55:09.696Z,55.90
2023-10-11T18:57:37.687Z,55.90
2023-10-11T19:00:12.436Z,55.80
2023-10-11T19:02:42.994Z,56.00
2023-10-11T19:05:11.801Z,55.90
2023-10-11T19:07:40.893Z,55.80
2023-10-11T19:10:09.906Z,55.90
2023-10-11T19:12:40.841Z,55.90
2023-10-11T19:15:10.131Z,55.90
2023-10-11T19:17:39.942Z,55.90
2023-10-11T19:20:14.950Z,55.90
2023-10-11T19:22:44.408Z,55.90
2023-10-11T19:25:14.944Z,55.90
2023-10-11T19:27:43.279Z,55.90
2023-10-11T19:30:17.506Z,55.90
2023-10-11T19:32:46.147Z,55.90
2023-10-11T19:35:15.956Z,55.90
2023-10-11T19:37:45.509Z,55.90
2023-10-11T19:40:16.599Z,55.90
2023-10-11T19:42:45.757Z,55.90
2023-10-11T19:45:17.724Z,55.90
2023-10-11T19:47:47.724Z,55.90
2023-10-11T19:50:17.996Z,55.90
2023-10-11T19:52:49.311Z,55.90
2023-10-11T19:55:19.146Z,55.90
2023-10-11T19:57:48.635Z,55.90
2023-10-11T20:00:19.935Z,55.90
2023-10-11T20:02:48.536Z,55.90
2023-10-11T20:05:19.101Z,55.90
2023-10-11T20:07:48.982Z,55.90
2023-10-11T20:10:17.416Z,55.90
2023-10-11T20:12:47.202Z,55.80
2023-10-11T20:15:16.988Z,55.80
2023-10-11T20:17:45.727Z,55.90
2023-10-11T20:20:16.345Z,55.90
2023-10-11T20:22:46.069Z,55.80
2023-10-11T20:25:16.646Z,55.90
2023-10-11T20:27:49.014Z,55.90
2023-10-11T20:30:18.862Z,56.00
2023-10-11T20:32:47.496Z,55.80
2023-10-11T20:35:16.624Z,55.90
2023-10-11T20:37:45.942Z,55.90
2023-10-11T20:40:16.331Z,55.90
2023-10-11T20:42:45.016Z,55.90
2023-10-11T20:45:15.262Z,55.90
2023-10-11T20:47:44.464Z,55.90
2023-10-11T20:50:17.471Z,55.90
2023-10-11T20:52:48.626Z,55.90
2023-10-11T20:55:17.147Z,55.90
2023-10-11T20:57:47.260Z,55.90
2023-10-11T21:00:16.361Z,55.90
2023-10-11T21:02:45.345Z,55.90
2023-10-11T21:05:15.060Z,55.90
2023-10-11T21:07:43.434Z,55.90
2023-10-11T21:10:13.043Z,55.90
2023-10-11T21:12:42.255Z,55.90
2023-10-11T21:15:13.019Z,55.90
2023-10-11T21:17:42.415Z,55.90
2023-10-11T21:20:13.089Z,55.90
2023-10-11T21:22:41.794Z,55.90
2023-10-11T21:25:14.003Z,55.90
2023-10-11T21:27:44.582Z,55.90
2023-10-11T21:30:18.907Z,55.90
2023-10-11T21:32:47.035Z,56.50
2023-10-11T21:35:22.083Z,55.90
2023-10-11T21:37:50.261Z,55.90
2023-10-11T21:40:20.157Z,55.90
2023-10-11T21:42:48.922Z,55.90
2023-10-11T21:45:17.358Z,55.80
2023-10-11T21:47:46.234Z,55.90
2023-10-11T21:50:16.449Z,55.90
2023-10-11T21:52:45.777Z,55.90
2023-10-11T21:55:15.407Z,55.80
2023-10-11T21:57:45.272Z,55.80
2023-10-11T22:00:15.325Z,55.90
2023-10-11T22:02:44.798Z,55.80
2023-10-11T22:05:13.423Z,55.90
2023-10-11T22:07:42.446Z,55.80
2023-10-11T22:10:11.829Z,55.90
2023-10-11T22:12:40.065Z,55.90
2023-10-11T22:15:12.938Z,55.90
2023-10-11T22:17:44.991Z,55.90
2023-10-11T22:20:17.308Z,55.90
2023-10-11T22:22:46.054Z,55.80
2023-10-11T22:25:15.276Z,55.80
2023-10-11T22:27:44.031Z,55.80
2023-10-11T22:30:22.217Z,55.80
2023-10-11T22:32:53.392Z,55.80
2023-10-11T22:35:22.272Z,55.80
2023-10-11T22:37:50.835Z,55.90
2023-10-11T22:40:18.787Z,55.80
2023-10-11T22:42:48.291Z,55.80
2023-10-11T22:45:18.860Z,55.80
2023-10-11T22:47:47.133Z,55.80
2023-10-11T22:50:19.400Z,55.80
2023-10-11T22:52:47.500Z,55.90
2023-10-11T22:55:15.506Z,55.80
2023-10-11T22:57:44.640Z,55.80
2023-10-11T23:00:19.082Z,55.80
2023-10-11T23:02:51.054Z,55.80
2023-10-11T23:05:20.319Z,55.80
2023-10-11T23:07:49.129Z,55.80
2023-10-11T23:10:20.191Z,55.80
2023-10-11T23:12:50.781Z,55.80
2023-10-11T23:15:21.542Z,55.80
2023-10-11T23:17:51.926Z,55.80
2023-10-11T23:20:20.540Z,55.80
2023-10-11T23:22:52.331Z,55.80
2023-10-11T23:25:27.961Z,55.80
2023-10-11T23:27:57.698Z,55.80
2023-10-11T23:30:28.970Z,55.80
2023-10-11T23:33:09.249Z,55.80
2023-10-11T23:35:40.250Z,55.80
2023-10-11T23:38:27.174Z,55.80
2023-10-11T23:41:15.945Z,55.80
2023-10-11T23:43:47.501Z,55.80
2023-10-11T23:46:27.075Z,55.80
2023-10-11T23:49:07.633Z,55.80
2023-10-11T23:51:40.192Z,55.80
2023-10-11T23:54:11.912Z,55.80
2023-10-11T23:56:45.266Z,55.80
2023-10-11T23:59:17.190Z,55.80
